Terminal Aerodrome Forecast
Issued by NWS Flagstaff, AZ

Home | Current Version | Previous Version | Text Only | Print | Product List | Glossary On
Versions: 1 2 3 4 5 6 7 8 9 10 11 12 13 14 15 16 17 18 19
000
FTUS45 KFGZ 251350 AAA
TAFINW
TAF AMD
KINW 251350Z 2514/2612 22008KT P6SM SCT070 BKN090
      TEMPO 2514/2516 6SM -SHRA OVC060
     FM251800 26011G20KT P6SM BKN070 BKN090
     FM260300 22008KT P6SM SCT070 BKN110=

USA.gov is the U.S. government's official web portal to all federal, state and local government web resources and services.